Time;durP1;ratioP1;P1;durP2;ratioP2;P2;SDS_P1;SDS_P2;PMS_P1;PMS_P2;Temp;Humidity;BMP_temperature;BMP_pressure;BME280_temperature;BME280_humidity;BME280_pressure;Samples;Min_cycle;Max_cycle;Signal;HPM_P1;HPM_P2
2023/08/11 00:02:19;;;;;;;9.07;5.97;;;21.60;81.90;;;;;;5037664;28;20030;-76
2023/08/11 00:04:45;;;;;;;6.82;6.00;;;21.60;82.00;;;;;;5022998;28;20041;-77
2023/08/11 00:07:11;;;;;;;8.63;6.25;;;21.60;82.40;;;;;;5036247;28;20520;-77
2023/08/11 00:09:37;;;;;;;7.72;6.07;;;21.60;82.60;;;;;;5037545;28;20090;-76
2023/08/11 00:12:03;;;;;;;9.55;5.80;;;21.60;82.70;;;;;;5037499;28;20454;-76
2023/08/11 00:14:29;;;;;;;8.32;6.10;;;21.50;83.00;;;;;;5034522;28;20037;-76
2023/08/11 00:16:56;;;;;;;11.15;6.63;;;21.40;83.20;;;;;;5036720;28;20029;-76
2023/08/11 00:19:22;;;;;;;9.30;6.65;;;21.40;83.40;;;;;;5002649;28;20533;-76
2023/08/11 00:21:48;;;;;;;8.27;6.50;;;21.40;83.60;;;;;;5019476;28;20037;-76
2023/08/11 00:24:14;;;;;;;8.00;6.30;;;21.30;83.90;;;;;;5037329;28;20029;-76
2023/08/11 00:26:39;;;;;;;7.40;6.25;;;21.30;84.10;;;;;;5036294;28;20044;-76
2023/08/11 00:29:05;;;;;;;7.22;5.43;;;21.30;84.10;;;;;;5035153;28;20061;-76
2023/08/11 00:31:31;;;;;;;9.70;6.43;;;21.30;84.20;;;;;;5036067;28;20066;-75
2023/08/11 00:33:57;;;;;;;10.35;6.20;;;21.30;84.40;;;;;;5036971;28;20029;-76
2023/08/11 00:36:24;;;;;;;6.30;5.70;;;21.30;84.40;;;;;;5037423;28;20087;-76
2023/08/11 00:38:50;;;;;;;10.13;6.90;;;21.30;84.40;;;;;;5017617;28;21028;-77
2023/08/11 00:41:16;;;;;;;10.68;6.45;;;21.30;84.70;;;;;;5022931;28;20059;-76
2023/08/11 00:43:45;;;;;;;9.55;6.35;;;21.20;84.90;;;;;;5002200;28;20030;-76
2023/08/11 00:46:13;;;;;;;6.95;6.10;;;21.30;85.40;;;;;;4983191;28;20121;-76
2023/08/11 00:48:41;;;;;;;9.02;5.70;;;21.20;85.70;;;;;;4984715;28;20069;-76
2023/08/11 00:51:09;;;;;;;10.52;6.05;;;21.20;85.90;;;;;;5036913;28;20048;-76
2023/08/11 00:53:36;;;;;;;7.72;6.28;;;21.20;86.10;;;;;;5018646;28;20116;-76
2023/08/11 00:56:03;;;;;;;7.22;6.25;;;21.20;86.10;;;;;;5034317;28;20033;-76
2023/08/11 00:58:31;;;;;;;9.73;5.90;;;21.10;86.10;;;;;;5016842;28;20040;-76
2023/08/11 01:00:58;;;;;;;9.40;6.60;;;21.20;86.10;;;;;;5001692;28;20044;-76
2023/08/11 01:03:24;;;;;;;8.00;5.88;;;21.10;86.10;;;;;;5036878;28;20541;-76
2023/08/11 01:06:29;;;;;;;9.27;6.30;;;21.10;86.30;;;;;;5001839;28;20045;-76
2023/08/11 01:09:32;;;;;;;10.02;6.40;;;21.10;86.70;;;;;;4947728;28;20039;-76
2023/08/11 01:12:00;;;;;;;9.00;6.97;;;21.10;86.70;;;;;;4978515;28;20092;-78
2023/08/11 01:14:38;;;;;;;12.52;6.80;;;21.00;87.00;;;;;;4978596;28;20440;-78
2023/08/11 01:17:06;;;;;;;6.95;6.25;;;21.00;86.80;;;;;;4979164;28;20042;-78
2023/08/11 01:19:35;;;;;;;8.48;6.40;;;20.90;87.00;;;;;;4960147;28;20047;-78
2023/08/11 01:22:10;;;;;;;7.38;6.57;;;20.90;87.20;;;;;;4962570;28;20046;-78
2023/08/11 01:24:37;;;;;;;10.27;6.68;;;20.90;87.50;;;;;;4978670;28;20097;-78
2023/08/11 01:27:03;;;;;;;10.32;6.65;;;20.90;87.40;;;;;;4978961;28;20521;-78
2023/08/11 01:29:29;;;;;;;10.45;6.88;;;20.90;87.70;;;;;;4966493;28;20050;-78
2023/08/11 01:31:55;;;;;;;8.48;6.50;;;20.90;87.70;;;;;;4978123;28;20034;-78
2023/08/11 01:34:22;;;;;;;7.95;6.80;;;20.90;87.60;;;;;;4977897;28;20039;-78
2023/08/11 01:36:56;;;;;;;8.52;6.57;;;20.90;87.80;;;;;;4952584;28;20031;-77
2023/08/11 01:39:22;;;;;;;7.35;5.93;;;20.90;88.00;;;;;;4962034;28;20101;-77
2023/08/11 01:41:48;;;;;;;9.68;6.47;;;20.90;88.10;;;;;;4978928;28;20126;-78
2023/08/11 01:44:14;;;;;;;7.10;6.40;;;20.90;88.50;;;;;;4977813;28;20129;-78
2023/08/11 01:46:42;;;;;;;7.20;6.32;;;20.90;88.90;;;;;;4995633;28;20154;-78
2023/08/11 01:49:12;;;;;;;7.47;6.45;;;20.90;88.90;;;;;;5018611;28;20037;-78
2023/08/11 01:51:39;;;;;;;8.25;6.85;;;20.90;88.70;;;;;;5035588;28;20115;-78
2023/08/11 01:54:07;;;;;;;8.23;6.25;;;21.00;88.50;;;;;;5022477;28;20068;-78
2023/08/11 01:56:38;;;;;;;6.80;6.15;;;20.90;88.80;;;;;;5034130;28;20419;-78
2023/08/11 01:59:10;;;;;;;8.05;6.85;;;20.90;88.90;;;;;;5022201;28;20042;-78
2023/08/11 02:01:38;;;;;;;9.32;7.20;;;20.90;89.00;;;;;;5017185;28;20519;-77
2023/08/11 02:04:05;;;;;;;8.88;7.00;;;20.80;89.40;;;;;;5017024;28;20046;-76
2023/08/11 02:06:31;;;;;;;8.75;6.80;;;20.80;89.60;;;;;;5015782;28;20038;-76
2023/08/11 02:08:58;;;;;;;7.80;7.05;;;20.80;89.60;;;;;;5017829;28;20033;-76
2023/08/11 02:11:25;;;;;;;10.15;7.45;;;20.80;90.00;;;;;;5017024;28;20033;-77
2023/08/11 02:13:51;;;;;;;10.00;7.25;;;20.70;89.90;;;;;;5000255;28;20047;-77
2023/08/11 02:16:17;;;;;;;10.00;7.07;;;20.80;90.00;;;;;;5017471;28;20033;-76
2023/08/11 02:18:43;;;;;;;9.32;7.00;;;20.70;90.10;;;;;;5016318;28;20037;-76
2023/08/11 02:21:10;;;;;;;8.50;7.40;;;20.80;90.00;;;;;;5017087;28;21071;-76
2023/08/11 02:23:36;;;;;;;8.75;6.93;;;20.80;90.00;;;;;;5017946;28;20038;-76
2023/08/11 02:26:03;;;;;;;8.80;7.75;;;20.80;90.00;;;;;;5033964;28;20030;-76
2023/08/11 02:28:29;;;;;;;7.78;6.90;;;20.90;89.90;;;;;;5034076;28;20424;-76
2023/08/11 02:30:55;;;;;;;10.20;7.15;;;20.90;90.00;;;;;;5032893;28;20324;-77
2023/08/11 02:33:22;;;;;;;10.82;6.55;;;21.00;89.70;;;;;;5035180;28;20041;-76
2023/08/11 02:35:48;;;;;;;8.60;6.47;;;21.00;89.50;;;;;;5034507;28;20116;-76
2023/08/11 02:38:16;;;;;;;9.73;5.65;;;21.00;89.50;;;;;;5016498;28;20033;-76
2023/08/11 02:40:42;;;;;;;8.85;6.70;;;21.10;89.90;;;;;;5032215;28;20038;-76
2023/08/11 02:43:08;;;;;;;6.63;5.93;;;21.10;89.90;;;;;;5017037;28;20033;-76
2023/08/11 02:45:35;;;;;;;7.95;6.20;;;21.00;90.00;;;;;;5004648;28;20033;-76
2023/08/11 02:48:02;;;;;;;7.82;5.93;;;21.00;90.10;;;;;;5015142;28;20416;-76
2023/08/11 02:50:29;;;;;;;10.90;6.15;;;21.10;90.10;;;;;;5034132;28;20044;-77
2023/08/11 02:52:54;;;;;;;7.38;5.60;;;21.10;90.20;;;;;;5016943;28;20041;-76
2023/08/11 02:55:20;;;;;;;8.60;6.05;;;21.20;90.10;;;;;;5001085;28;20164;-76
2023/08/11 02:57:46;;;;;;;9.15;5.93;;;21.20;90.00;;;;;;5032345;28;20158;-77
2023/08/11 03:00:13;;;;;;;10.45;6.20;;;21.20;90.00;;;;;;5000065;28;20040;-77
2023/08/11 03:02:45;;;;;;;7.50;5.90;;;21.30;89.90;;;;;;5017313;28;20080;-80
2023/08/11 03:05:11;;;;;;;7.63;5.38;;;21.30;89.90;;;;;;5016197;28;20033;-79
2023/08/11 03:07:39;;;;;;;6.85;5.55;;;21.40;89.70;;;;;;5021489;28;20029;-78
2023/08/11 03:10:06;;;;;;;8.07;5.82;;;21.40;89.60;;;;;;5015823;28;20048;-79
2023/08/11 03:12:34;;;;;;;9.27;5.70;;;21.40;89.60;;;;;;5017307;28;20037;-81
2023/08/11 03:15:00;;;;;;;8.10;5.45;;;21.40;89.40;;;;;;5021642;28;20038;-80
2023/08/11 03:17:26;;;;;;;8.77;5.80;;;21.40;89.50;;;;;;5018993;28;20029;-78
2023/08/11 03:19:53;;;;;;;9.10;5.72;;;21.40;89.60;;;;;;5036400;28;20045;-81
2023/08/11 03:22:19;;;;;;;7.10;5.85;;;21.40;89.60;;;;;;5019779;28;20488;-80
2023/08/11 03:24:47;;;;;;;8.30;5.72;;;21.40;89.70;;;;;;5035588;28;20500;-80
2023/08/11 03:27:14;;;;;;;6.13;5.50;;;21.50;89.50;;;;;;5039446;28;20039;-80
2023/08/11 03:29:41;;;;;;;8.32;5.50;;;21.50;89.30;;;;;;5037955;28;20451;-79
2023/08/11 03:32:08;;;;;;;10.05;5.05;;;21.50;89.20;;;;;;5020644;28;20034;-80
2023/08/11 03:34:34;;;;;;;6.78;5.43;;;21.50;89.40;;;;;;5021183;28;20037;-80
2023/08/11 03:37:00;;;;;;;9.35;5.55;;;21.50;89.40;;;;;;5003008;28;20039;-78
2023/08/11 03:39:26;;;;;;;7.03;5.15;;;21.50;89.60;;;;;;5037548;28;20091;-79
2023/08/11 03:41:52;;;;;;;7.25;5.65;;;21.50;89.40;;;;;;5023988;28;20556;-78
2023/08/11 03:44:19;;;;;;;9.27;4.85;;;21.60;89.30;;;;;;5022463;28;20064;-78
2023/08/11 03:46:45;;;;;;;5.25;4.63;;;21.60;89.30;;;;;;5005553;28;20534;-78
2023/08/11 03:49:12;;;;;;;6.25;4.85;;;21.70;89.30;;;;;;5022434;28;20041;-79
2023/08/11 03:51:38;;;;;;;8.30;5.25;;;21.70;89.30;;;;;;5039280;28;20065;-78
2023/08/11 03:54:04;;;;;;;6.80;5.13;;;21.70;89.30;;;;;;5021006;28;21579;-79
2023/08/11 03:56:34;;;;;;;6.25;4.68;;;21.80;89.40;;;;;;5003627;28;20511;-79
2023/08/11 03:59:01;;;;;;;6.38;5.40;;;21.80;89.10;;;;;;5024858;28;20226;-81
2023/08/11 04:01:27;;;;;;;7.55;5.00;;;21.90;88.90;;;;;;5020130;28;20095;-82
2023/08/11 04:03:53;;;;;;;6.53;4.95;;;21.90;88.70;;;;;;5007061;28;20573;-80
2023/08/11 04:06:20;;;;;;;6.78;5.05;;;22.00;88.70;;;;;;5019527;28;20051;-81
2023/08/11 04:08:46;;;;;;;6.47;4.97;;;22.00;88.50;;;;;;5036454;28;20515;-78
2023/08/11 04:11:11;;;;;;;10.68;5.18;;;22.10;88.60;;;;;;5035741;28;20558;-78
2023/08/11 04:13:37;;;;;;;8.85;4.97;;;22.10;88.60;;;;;;5017906;28;20068;-78
2023/08/11 04:16:04;;;;;;;5.95;4.32;;;22.30;88.20;;;;;;5035788;28;20146;-79
2023/08/11 04:18:30;;;;;;;4.88;4.32;;;22.50;87.50;;;;;;4995613;28;20087;-79
2023/08/11 04:20:56;;;;;;;6.43;4.35;;;22.80;86.60;;;;;;5037385;28;20042;-79
2023/08/11 04:23:21;;;;;;;6.18;4.50;;;23.00;85.90;;;;;;5019511;28;20033;-79
2023/08/11 04:25:47;;;;;;;5.15;4.05;;;23.20;85.20;;;;;;5019610;28;20029;-79
2023/08/11 04:28:15;;;;;;;4.85;3.80;;;23.50;84.40;;;;;;5024119;28;20095;-79
2023/08/11 04:30:41;;;;;;;5.43;4.15;;;23.70;83.40;;;;;;5019158;28;20053;-80
2023/08/11 04:33:12;;;;;;;6.45;4.13;;;23.90;82.90;;;;;;5019025;28;20057;-80
2023/08/11 04:35:38;;;;;;;5.50;3.42;;;23.90;82.40;;;;;;5035711;28;20034;-81
2023/08/11 04:38:05;;;;;;;4.38;3.72;;;24.00;82.00;;;;;;5018264;28;20071;-81
2023/08/11 04:40:34;;;;;;;7.60;4.25;;;24.10;81.70;;;;;;5018210;28;20041;-79
2023/08/11 04:43:00;;;;;;;5.75;4.00;;;24.10;81.60;;;;;;5018606;28;20064;-83
2023/08/11 04:45:32;;;;;;;5.60;3.60;;;24.10;81.70;;;;;;5024792;28;20431;-83
2023/08/11 04:47:59;;;;;;;5.70;3.58;;;24.20;81.40;;;;;;5002510;28;20227;-79
2023/08/11 04:50:25;;;;;;;6.35;3.78;;;24.20;81.00;;;;;;5035869;28;20092;-79
2023/08/11 04:52:55;;;;;;;3.60;3.15;;;24.20;81.00;;;;;;5019378;28;20042;-78
2023/08/11 04:55:23;;;;;;;6.22;3.72;;;24.00;81.20;;;;;;5023345;28;20040;-78
2023/08/11 04:57:49;;;;;;;6.40;3.58;;;24.00;81.60;;;;;;5016617;28;20512;-79
2023/08/11 05:00:16;;;;;;;7.25;3.63;;;23.90;81.70;;;;;;5036326;28;20128;-79
2023/08/11 05:02:43;;;;;;;4.47;3.50;;;23.80;81.90;;;;;;5035906;28;20029;-79
2023/08/11 05:05:10;;;;;;;6.70;3.58;;;23.70;82.30;;;;;;5018565;28;20424;-79
2023/08/11 05:07:37;;;;;;;4.07;3.45;;;23.70;82.60;;;;;;5037368;28;20045;-79
2023/08/11 05:10:04;;;;;;;6.03;3.65;;;23.60;82.60;;;;;;5035919;28;20090;-79
2023/08/11 05:12:30;;;;;;;5.13;3.40;;;23.60;82.90;;;;;;5019361;28;20057;-79
2023/08/11 05:14:56;;;;;;;4.97;3.65;;;23.50;83.00;;;;;;5036582;28;20045;-80
2023/08/11 05:17:22;;;;;;;4.43;3.78;;;23.50;82.90;;;;;;5035693;28;20457;-80
2023/08/11 05:19:48;;;;;;;5.80;4.10;;;23.40;83.60;;;;;;5035551;28;20060;-79
2023/08/11 05:22:14;;;;;;;5.57;3.88;;;23.30;84.20;;;;;;5036940;28;20055;-81
2023/08/11 05:24:40;;;;;;;5.85;3.60;;;23.30;84.40;;;;;;5037178;28;20072;-79
2023/08/11 05:27:08;;;;;;;4.43;4.03;;;23.30;84.80;;;;;;5035123;28;20041;-78
2023/08/11 05:29:34;;;;;;;5.10;4.00;;;23.20;85.00;;;;;;5035822;28;20053;-79
2023/08/11 05:32:00;;;;;;;9.07;3.92;;;23.20;85.70;;;;;;5034934;28;20034;-85
2023/08/11 05:34:26;;;;;;;6.00;3.70;;;23.20;87.20;;;;;;5034474;28;20037;-77
2023/08/11 05:36:53;;;;;;;7.53;4.57;;;23.20;87.00;;;;;;5035084;28;20033;-77
2023/08/11 05:39:19;;;;;;;4.90;4.30;;;23.00;88.00;;;;;;5034607;28;20029;-77
2023/08/11 05:41:45;;;;;;;7.55;4.53;;;23.10;87.90;;;;;;5034254;28;20500;-77
2023/08/11 05:44:11;;;;;;;6.70;4.47;;;23.00;88.30;;;;;;5035903;28;20212;-77
2023/08/11 05:46:37;;;;;;;6.22;5.18;;;23.00;88.60;;;;;;5033930;28;20029;-77
2023/08/11 05:49:03;;;;;;;8.35;5.40;;;23.00;88.30;;;;;;5035905;28;20128;-77
2023/08/11 05:51:29;;;;;;;8.77;6.10;;;22.90;88.60;;;;;;5035421;28;20022;-77
2023/08/11 05:53:55;;;;;;;8.95;6.28;;;22.90;89.10;;;;;;5035768;28;20607;-78
2023/08/11 05:56:21;;;;;;;9.98;6.05;;;22.80;89.20;;;;;;5034577;28;20523;-78
2023/08/11 05:58:47;;;;;;;11.18;6.70;;;22.80;89.90;;;;;;5034902;28;20160;-78
2023/08/11 06:01:13;;;;;;;10.77;7.18;;;22.80;90.30;;;;;;5021435;28;20064;-77
2023/08/11 06:03:39;;;;;;;11.10;7.00;;;22.70;90.20;;;;;;5035962;28;20087;-77
2023/08/11 06:06:05;;;;;;;11.13;7.20;;;22.70;90.20;;;;;;5035030;28;21387;-78
2023/08/11 06:08:31;;;;;;;9.88;6.70;;;22.80;90.20;;;;;;5016717;28;20496;-78
2023/08/11 06:10:57;;;;;;;10.00;6.70;;;22.70;90.10;;;;;;5035298;28;20053;-84
2023/08/11 06:13:23;;;;;;;7.95;7.05;;;22.80;89.80;;;;;;5017764;28;20048;-85
2023/08/11 06:15:50;;;;;;;9.95;7.38;;;22.80;90.00;;;;;;5034680;28;20033;-85
2023/08/11 06:18:17;;;;;;;8.50;6.82;;;22.80;90.30;;;;;;5017726;28;20523;-86
2023/08/11 06:20:43;;;;;;;8.07;7.28;;;22.80;90.20;;;;;;5017583;28;20056;-85
2023/08/11 06:23:09;;;;;;;9.40;6.93;;;22.90;90.20;;;;;;5034592;28;20039;-82
2023/08/11 06:25:36;;;;;;;8.60;7.50;;;22.90;90.20;;;;;;5035270;28;20107;-86
2023/08/11 06:28:03;;;;;;;8.90;7.35;;;22.90;90.10;;;;;;5033613;28;20029;-76
2023/08/11 06:30:30;;;;;;;9.90;7.57;;;23.00;89.70;;;;;;5017873;28;21179;-77
2023/08/11 06:32:56;;;;;;;11.82;7.78;;;23.00;90.00;;;;;;5035647;28;20420;-76
2023/08/11 06:35:22;;;;;;;11.35;7.97;;;23.00;90.10;;;;;;5034666;28;20132;-76
2023/08/11 06:37:49;;;;;;;9.38;7.65;;;23.00;89.60;;;;;;5033228;28;20424;-76
2023/08/11 06:40:15;;;;;;;10.35;7.88;;;23.00;90.00;;;;;;5033776;28;20097;-77
2023/08/11 06:42:41;;;;;;;10.02;8.35;;;23.00;90.20;;;;;;5033010;28;20035;-77
2023/08/11 06:45:09;;;;;;;9.10;7.65;;;23.00;90.10;;;;;;5016922;28;20037;-77
2023/08/11 06:47:35;;;;;;;10.20;8.30;;;23.00;90.00;;;;;;5034451;28;20033;-77
2023/08/11 06:50:03;;;;;;;12.00;8.52;;;22.90;90.10;;;;;;5034624;28;20385;-77
2023/08/11 06:52:29;;;;;;;9.68;8.18;;;22.90;90.10;;;;;;5033602;28;20041;-77
2023/08/11 06:54:55;;;;;;;8.82;7.60;;;22.90;90.00;;;;;;5033626;28;20044;-77
2023/08/11 06:57:21;;;;;;;9.40;7.70;;;22.90;90.10;;;;;;5034561;28;20025;-77
2023/08/11 06:59:48;;;;;;;10.48;8.13;;;22.90;90.00;;;;;;5016087;28;20543;-80
2023/08/11 07:02:14;;;;;;;9.40;7.78;;;23.00;89.80;;;;;;5016953;28;20087;-87
2023/08/11 07:04:40;;;;;;;12.52;8.00;;;23.00;89.40;;;;;;5020261;28;20044;-80
2023/08/11 07:07:07;;;;;;;11.98;7.80;;;23.00;89.80;;;;;;5035363;28;20041;-79
2023/08/11 07:09:33;;;;;;;9.35;7.90;;;23.00;90.00;;;;;;5010044;28;20475;-79
2023/08/11 07:11:59;;;;;;;12.02;8.15;;;23.00;89.90;;;;;;5036219;28;20030;-77
2023/08/11 07:14:26;;;;;;;9.32;7.75;;;23.00;90.00;;;;;;5019814;28;21541;-77
2023/08/11 07:16:52;;;;;;;10.90;7.90;;;23.10;89.80;;;;;;5038433;28;20033;-77
2023/08/11 07:19:19;;;;;;;13.18;8.48;;;23.10;89.50;;;;;;5037600;28;20041;-78
2023/08/11 07:21:45;;;;;;;11.38;8.07;;;23.20;89.30;;;;;;5038852;28;20033;-77
2023/08/11 07:24:11;;;;;;;10.20;7.35;;;23.10;89.00;;;;;;5039756;28;20038;-77
2023/08/11 07:26:37;;;;;;;10.57;7.78;;;23.20;88.60;;;;;;5020786;28;20030;-77
2023/08/11 07:29:04;;;;;;;11.35;7.82;;;23.10;88.30;;;;;;5037897;28;20071;-78
2023/08/11 07:31:29;;;;;;;10.02;7.32;;;23.20;88.30;;;;;;5037251;28;20187;-79
2023/08/11 07:33:55;;;;;;;8.10;7.30;;;23.20;87.40;;;;;;5020823;28;20074;-78
2023/08/11 07:36:21;;;;;;;8.07;6.50;;;23.20;86.70;;;;;;5037619;28;20499;-79
2023/08/11 07:38:47;;;;;;;8.27;6.72;;;23.30;86.60;;;;;;5036606;28;20037;-77
2023/08/11 07:41:13;;;;;;;7.28;6.57;;;23.30;86.50;;;;;;5039439;28;20048;-77
2023/08/11 07:43:39;;;;;;;7.25;6.32;;;23.30;86.40;;;;;;5020142;28;20029;-77
2023/08/11 07:46:05;;;;;;;8.15;6.82;;;23.40;86.20;;;;;;5038021;28;20581;-78
2023/08/11 07:48:31;;;;;;;8.30;6.65;;;23.40;86.10;;;;;;5020713;28;20496;-77
2023/08/11 07:50:57;;;;;;;8.75;6.55;;;23.40;86.20;;;;;;5037201;28;20535;-74
2023/08/11 07:53:23;;;;;;;7.47;6.20;;;23.50;86.10;;;;;;5016357;28;20411;-74
2023/08/11 07:55:49;;;;;;;9.93;5.68;;;23.70;85.80;;;;;;5034795;28;20128;-74
2023/08/11 07:58:15;;;;;;;5.55;5.05;;;23.80;84.60;;;;;;5017456;28;20104;-74
2023/08/11 08:00:41;;;;;;;6.15;5.05;;;23.90;84.10;;;;;;5032909;28;20040;-75
2023/08/11 08:03:10;;;;;;;5.78;5.15;;;23.90;84.00;;;;;;5033810;28;20454;-74
2023/08/11 08:05:40;;;;;;;7.05;5.90;;;23.90;84.20;;;;;;5036965;28;20041;-73
2023/08/11 08:08:08;;;;;;;6.95;5.72;;;23.90;84.00;;;;;;5038766;28;21463;-74
2023/08/11 08:10:37;;;;;;;7.82;6.20;;;24.00;83.70;;;;;;5029565;28;20117;-74
2023/08/11 08:13:03;;;;;;;6.40;5.78;;;24.00;83.60;;;;;;5037050;28;20131;-72
2023/08/11 08:15:29;;;;;;;8.50;5.68;;;24.10;83.90;;;;;;5023073;28;20024;-76
2023/08/11 08:17:56;;;;;;;9.98;6.00;;;24.10;83.60;;;;;;5018673;28;20056;-76
2023/08/11 08:20:22;;;;;;;7.10;6.20;;;24.20;83.80;;;;;;5040532;28;20543;-75
2023/08/11 08:22:48;;;;;;;7.28;5.60;;;24.20;83.50;;;;;;5024036;28;20452;-76
2023/08/11 08:25:14;;;;;;;6.70;5.82;;;24.30;83.30;;;;;;5007487;28;20068;-76
2023/08/11 08:27:41;;;;;;;6.78;5.65;;;24.40;82.50;;;;;;5042435;28;20072;-80
2023/08/11 08:30:11;;;;;;;6.30;5.22;;;24.50;82.70;;;;;;5043172;28;20071;-76
2023/08/11 08:32:39;;;;;;;6.28;5.05;;;24.60;82.50;;;;;;5040398;28;20037;-78
2023/08/11 08:35:06;;;;;;;7.70;5.20;;;24.60;81.30;;;;;;5042530;28;20064;-77
2023/08/11 08:37:32;;;;;;;5.63;5.13;;;24.60;81.40;;;;;;5040727;28;20096;-76
2023/08/11 08:39:58;;;;;;;8.07;5.20;;;24.50;80.90;;;;;;5039870;28;20061;-78
2023/08/11 08:42:26;;;;;;;8.20;5.40;;;24.50;81.20;;;;;;5022437;28;20064;-76
2023/08/11 08:44:53;;;;;;;6.43;5.50;;;24.50;81.20;;;;;;5042060;28;20033;-77
2023/08/11 08:47:21;;;;;;;8.63;5.30;;;24.50;80.90;;;;;;5040778;28;20038;-79
2023/08/11 08:49:48;;;;;;;6.20;5.40;;;24.50;81.10;;;;;;5040192;28;20037;-76
2023/08/11 08:52:15;;;;;;;6.68;5.70;;;24.50;81.60;;;;;;5028219;28;20029;-77
2023/08/11 08:54:42;;;;;;;8.07;5.75;;;24.40;81.70;;;;;;5023709;28;20029;-77
2023/08/11 08:57:09;;;;;;;6.40;5.80;;;24.40;81.90;;;;;;5022375;28;20087;-76
2023/08/11 08:59:37;;;;;;;6.47;5.75;;;24.30;82.20;;;;;;5042101;28;20033;-82
2023/08/11 09:02:03;;;;;;;7.05;6.35;;;24.30;82.80;;;;;;5042152;28;20292;-77
2023/08/11 09:04:30;;;;;;;9.02;5.90;;;24.30;83.80;;;;;;5040200;28;20107;-78
2023/08/11 09:06:56;;;;;;;7.88;6.25;;;24.30;84.00;;;;;;5040432;28;20104;-79
2023/08/11 09:09:27;;;;;;;7.45;6.10;;;24.30;84.70;;;;;;5024242;28;20403;-81
2023/08/11 09:11:56;;;;;;;7.00;6.30;;;24.30;85.00;;;;;;5036259;28;20138;-78
2023/08/11 09:14:23;;;;;;;8.02;6.20;;;24.20;85.10;;;;;;5037706;28;20040;-79
2023/08/11 09:16:53;;;;;;;7.32;6.63;;;24.20;85.30;;;;;;5003339;28;20033;-81
2023/08/11 09:19:20;;;;;;;9.30;6.85;;;24.20;85.10;;;;;;5019305;28;20124;-84
2023/08/11 09:21:47;;;;;;;7.18;6.47;;;24.30;85.10;;;;;;5036981;28;20662;-82
2023/08/11 09:24:14;;;;;;;8.80;6.35;;;24.20;85.20;;;;;;5021058;28;20044;-83
2023/08/11 09:26:46;;;;;;;8.65;6.93;;;24.20;85.70;;;;;;5037942;28;20516;-81
2023/08/11 09:29:19;;;;;;;7.20;6.30;;;24.20;86.20;;;;;;5038089;28;20037;-77
2023/08/11 09:31:52;;;;;;;7.68;6.97;;;24.20;86.20;;;;;;5036853;28;20048;-80
2023/08/11 09:34:19;;;;;;;8.50;7.35;;;24.30;86.10;;;;;;5037084;28;20033;-75
2023/08/11 09:36:47;;;;;;;8.82;7.13;;;24.20;86.30;;;;;;5036464;28;20033;-75
2023/08/11 09:39:14;;;;;;;8.27;6.57;;;24.30;86.70;;;;;;5010943;28;20419;-74
2023/08/11 09:41:42;;;;;;;9.60;7.45;;;24.30;86.20;;;;;;5035073;28;20446;-75
2023/08/11 09:44:16;;;;;;;7.75;7.00;;;24.20;86.80;;;;;;5018558;28;20033;-74
2023/08/11 09:46:43;;;;;;;9.00;8.00;;;24.20;86.80;;;;;;5036474;28;20072;-76
2023/08/11 09:49:09;;;;;;;9.85;7.70;;;24.20;87.00;;;;;;5037482;28;20044;-74
2023/08/11 09:51:37;;;;;;;9.00;6.90;;;24.20;87.20;;;;;;5019419;28;20076;-74
2023/08/11 09:54:08;;;;;;;7.20;6.38;;;24.30;87.00;;;;;;5037413;28;20496;-77
2023/08/11 09:56:39;;;;;;;8.45;5.90;;;24.40;86.80;;;;;;5037888;28;20508;-78
2023/08/11 09:59:31;;;;;;;7.40;6.63;;;24.60;86.60;;;;;;5039069;28;20466;-76
2023/08/11 10:02:01;;;;;;;8.77;7.88;;;24.60;87.10;;;;;;5034874;28;20045;-76
2023/08/11 10:04:37;;;;;;;8.25;6.50;;;24.60;87.60;;;;;;5035133;28;20041;-75
2023/08/11 10:07:09;;;;;;;8.85;7.32;;;24.70;87.10;;;;;;5035737;28;22798;-74
2023/08/11 10:09:36;;;;;;;10.23;8.70;;;24.70;87.00;;;;;;5036866;28;20522;-73
2023/08/11 10:12:05;;;;;;;9.50;8.50;;;24.50;88.00;;;;;;5036690;28;20044;-74
2023/08/11 10:14:34;;;;;;;8.90;6.95;;;24.40;88.20;;;;;;5035304;28;20636;-73
2023/08/11 10:17:00;;;;;;;8.15;7.35;;;24.60;87.80;;;;;;5033808;28;20120;-75
2023/08/11 10:19:27;;;;;;;10.32;7.88;;;24.60;87.50;;;;;;5016699;28;20045;-75
2023/08/11 10:21:54;;;;;;;8.82;6.82;;;24.70;87.20;;;;;;5020363;28;20028;-80
2023/08/11 10:24:21;;;;;;;9.75;6.97;;;24.90;86.80;;;;;;5039903;28;20070;-81
2023/08/11 10:26:48;;;;;;;9.88;7.22;;;25.00;85.80;;;;;;5035043;28;20156;-77
2023/08/11 10:29:15;;;;;;;9.90;7.50;;;24.80;85.30;;;;;;5034868;28;20145;-75
2023/08/11 10:32:01;;;;;;;8.73;7.85;;;24.70;85.40;;;;;;5016739;28;20128;-77
2023/08/11 10:34:27;;;;;;;8.48;7.65;;;24.80;84.60;;;;;;5035096;28;20223;-73
2023/08/11 10:36:57;;;;;;;8.80;7.03;;;24.80;84.50;;;;;;5015222;28;20123;-73
2023/08/11 10:39:24;;;;;;;8.25;6.88;;;24.90;84.40;;;;;;5032751;28;20120;-73
2023/08/11 10:41:50;;;;;;;8.20;7.50;;;24.90;84.30;;;;;;5033947;28;20050;-75
2023/08/11 10:44:20;;;;;;;8.15;7.35;;;24.80;84.30;;;;;;5001384;28;20029;-74
2023/08/11 10:46:48;;;;;;;7.72;6.93;;;24.80;83.80;;;;;;5033286;28;20048;-74
2023/08/11 10:49:13;;;;;;;8.07;7.28;;;24.80;84.10;;;;;;5033778;28;20068;-74
2023/08/11 10:51:41;;;;;;;8.93;6.95;;;24.80;83.90;;;;;;5015952;28;20084;-82
2023/08/11 10:54:07;;;;;;;7.72;7.03;;;24.80;83.60;;;;;;5034225;28;20179;-80
2023/08/11 10:56:41;;;;;;;11.32;6.88;;;24.60;84.00;;;;;;5017251;28;20534;-79
2023/08/11 10:59:15;;;;;;;9.65;7.50;;;24.70;84.30;;;;;;5034440;28;20182;-76
2023/08/11 11:01:45;;;;;;;8.20;7.40;;;24.70;84.20;;;;;;5016141;28;20244;-77
2023/08/11 11:04:12;;;;;;;8.13;7.32;;;24.70;84.20;;;;;;5033766;28;20301;-77
2023/08/11 11:06:41;;;;;;;12.85;7.53;;;24.70;84.00;;;;;;5017167;28;20456;-76
2023/08/11 11:09:08;;;;;;;11.05;7.05;;;24.70;84.40;;;;;;5033767;28;20509;-75
2023/08/11 11:11:36;;;;;;;9.52;6.68;;;24.80;84.30;;;;;;5020677;28;20029;-78
2023/08/11 11:14:10;;;;;;;8.43;7.15;;;25.00;84.20;;;;;;5033148;28;20078;-75
2023/08/11 11:16:37;;;;;;;8.75;7.95;;;25.00;83.80;;;;;;5033878;28;20571;-75
2023/08/11 11:19:05;;;;;;;8.63;7.55;;;25.00;83.90;;;;;;5003130;28;20449;-75
2023/08/11 11:21:32;;;;;;;10.95;7.55;;;25.10;83.80;;;;;;5034653;28;20033;-78
2023/08/11 11:23:59;;;;;;;8.80;7.55;;;25.10;84.00;;;;;;5033289;28;20075;-76
2023/08/11 11:26:31;;;;;;;10.00;8.02;;;25.10;85.10;;;;;;5034588;28;20083;-77
2023/08/11 11:28:59;;;;;;;8.85;7.88;;;25.10;85.30;;;;;;5033835;28;20491;-85
2023/08/11 11:31:28;;;;;;;10.38;8.40;;;25.30;86.10;;;;;;5029998;28;20054;-87
2023/08/11 11:33:54;;;;;;;10.88;9.15;;;25.30;84.40;;;;;;5029358;28;20037;-82
2023/08/11 11:36:23;;;;;;;8.73;7.82;;;25.30;86.40;;;;;;5014085;28;20069;-77
2023/08/11 11:38:49;;;;;;;10.35;9.10;;;25.40;87.10;;;;;;5010492;28;20038;-78
2023/08/11 11:41:17;;;;;;;9.18;8.25;;;25.60;86.90;;;;;;5031916;28;20076;-76
2023/08/11 11:43:45;;;;;;;8.50;7.70;;;25.70;87.90;;;;;;5017241;28;20033;-77
2023/08/11 11:46:15;;;;;;;9.43;7.40;;;25.90;86.70;;;;;;5017660;28;20096;-79
2023/08/11 11:48:52;;;;;;;9.05;7.22;;;25.80;85.80;;;;;;5017741;28;20030;-77
2023/08/11 11:51:29;;;;;;;7.57;6.88;;;25.80;84.60;;;;;;5016100;28;20065;-78
2023/08/11 11:53:58;;;;;;;9.98;7.32;;;25.90;85.00;;;;;;5017503;28;20050;-77
2023/08/11 11:56:28;;;;;;;8.45;7.13;;;26.00;85.30;;;;;;5016598;28;20041;-77
2023/08/11 11:58:55;;;;;;;7.93;7.15;;;26.10;84.50;;;;;;5017445;28;20097;-78
2023/08/11 12:01:25;;;;;;;7.97;7.18;;;26.20;84.10;;;;;;5016835;28;20042;-76
2023/08/11 12:03:55;;;;;;;9.15;6.85;;;26.30;84.30;;;;;;5019091;28;20033;-83
2023/08/11 12:06:22;;;;;;;13.50;7.40;;;26.20;82.70;;;;;;5021963;28;20030;-79
2023/08/11 12:08:51;;;;;;;9.00;6.95;;;26.10;82.80;;;;;;5034995;28;20184;-77
2023/08/11 12:11:27;;;;;;;7.65;6.90;;;26.00;82.90;;;;;;5022054;28;20509;-78
2023/08/11 12:13:53;;;;;;;10.68;6.50;;;25.90;82.90;;;;;;5021050;28;20032;-78
2023/08/11 12:16:20;;;;;;;7.30;6.55;;;25.90;83.30;;;;;;5022352;28;20125;-78
2023/08/11 12:18:47;;;;;;;8.82;6.70;;;25.90;83.20;;;;;;5019850;28;20033;-77
2023/08/11 12:21:13;;;;;;;8.77;6.88;;;25.90;82.90;;;;;;5017785;28;20116;-77
2023/08/11 12:23:39;;;;;;;10.80;6.50;;;26.00;83.00;;;;;;5017005;28;20034;-79
2023/08/11 12:26:05;;;;;;;7.18;6.57;;;25.90;83.00;;;;;;5016845;28;20048;-77
2023/08/11 12:28:31;;;;;;;7.00;6.40;;;25.80;82.80;;;;;;5015654;28;20485;-77
2023/08/11 12:30:57;;;;;;;8.55;6.22;;;25.60;81.10;;;;;;5034108;28;20045;-85
2023/08/11 12:33:23;;;;;;;8.68;6.50;;;25.50;83.10;;;;;;5038336;28;20065;-86
2023/08/11 12:35:49;;;;;;;6.55;5.95;;;25.50;82.30;;;;;;5037571;28;20568;-77
2023/08/11 12:38:16;;;;;;;7.20;6.30;;;25.50;82.90;;;;;;5035229;28;20128;-77
2023/08/11 12:40:44;;;;;;;8.48;6.80;;;25.60;83.00;;;;;;5036763;28;20523;-80
2023/08/11 12:43:10;;;;;;;7.13;6.43;;;25.30;82.60;;;;;;5035749;28;20408;-77
2023/08/11 12:45:37;;;;;;;7.60;6.90;;;25.40;82.80;;;;;;5042502;28;20111;-89
2023/08/11 12:48:04;;;;;;;7.65;6.90;;;25.40;83.20;;;;;;5040176;28;20042;-81